EGLCEGSH

Guest
Details From EGLC - London City
To EGSH - Norwich
Flight Number -
Tags generated
Created
Modified
Stats Distance 84 nm / 155 km
Max Altitude 3,200 ft / 975 m
Waypoints 3
Social Downloads 0
Likes 0
Share

Download

Looking for another format? Having issues loading an existing format? Contact us
Advertisement - Login to hide

Notes

Basic altitude profile: - Ascent Rate: 2500ft/min - Ascent Speed: 250kts - Cruise Altitude: 3500ft - Cruise Speed: 100kts - Descent Rate: 1500ft/min - Descent Speed: 250kts Options: - Use NATs: yes - Use PACOTS: yes - Use low airways: no - Use high airways: yes

Route

EGLC LAM EGSH

ID Type Via Altitude (ft/m) Position (lat/lon) Dist (leg/tot) Name
O EGLC APT - 0 / 0 51.50523 / 0.05518 - / 0 nm London City
LAM VOR - 3,200 / 975 51.64611 / 0.15167 9 / 9 nm LAMBOURNE VOR-DME
O EGSH APT - 0 / 0 52.67686 / 1.28449 74 / 83 nm Norwich

Altitude Profile

Advertisement - Login to hide

EGLC

Details ICAO EGLC (LCY)
Name London City
Region United Kingdom
Timezone Europe/London (UTC+0.0)
Stats Elevation 19 ft / 6 m (AMSL)
Location 51.505200° 0.055183°
Runways 1
Magnetic Variation 0.047° E

METAR

EGLC 270820Z AUTO VRB01KT 0100 R09/0100 FG VV/// 02/01 Q1020

Decode

TAF

Not found

Departure Runways

ID Width Length Bearing (true/mag) Surface Threshold Overrun Markings Lighting
09 98 ft / 30 m 4,914 ft / 1,498 m 92.88° / 92.83° ASPHALT 308 ft / 94 m 190 ft / 58 m UK-PREC-APP CENTERLINE EDGE THRESHOLD MALS REIL-OMNI
27 98 ft / 30 m 4,914 ft / 1,498 m 272.90° / 272.85° ASPHALT 233 ft / 71 m 302 ft / 92 m UK-PREC-APP CENTERLINE EDGE THRESHOLD MALS REIL-OMNI

EGSH

Details ICAO EGSH (NWI)
Name Norwich
Region United Kingdom
Timezone Europe/London (UTC+0.0)
Stats Elevation 117 ft / 36 m (AMSL)
Location 52.675900° 1.282650°
Runways 1
Magnetic Variation 0.362° E

METAR

EGSH 270820Z 26004KT 0150 R27/0325 FG SCT048 03/03 Q1021

Decode

TAF

Not found

Destination Runways

ID Width Length Bearing (true/mag) Surface Threshold Overrun Markings Lighting
09 148 ft / 45 m 5,990 ft / 1,826 m 89.27° / 88.91° ASPHALT 0 ft / 0 m 0 ft / 0 m UK-APP CENTERLINE EDGE THRESHOLD CALVERT-ILS
27 148 ft / 45 m 5,990 ft / 1,826 m 269.29° / 268.93° ASPHALT 0 ft / 0 m 26 ft / 8 m UK-PREC-APP CENTERLINE EDGE THRESHOLD ALSF-I

Approach Navaids

Runway Type Ident Frequency Range Bearing (true/mag) Slope Elevation
27 DME INH 110.90 MHz 18 nm / 33 km - - 137 ft / 42 m (AMSL)
27 LOC-ILS INH 110.90 MHz 18 nm / 33 km 269.28° / 268.92 ° - 117 ft / 36 m (AMSL)
27 GS INH 110.90 MHz 10 nm / 19 km 269.28° / 268.92 ° 3.00° 117 ft / 36 m (AMSL)

Popular Alternatives